Time;durP1;ratioP1;P1;durP2;ratioP2;P2;SDS_P1;SDS_P2;PMS_P1;PMS_P2;Temp;Humidity;BMP_temperature;BMP_pressure;BME280_temperature;BME280_humidity;BME280_pressure;Samples;Min_cycle;Max_cycle;Signal;HPM_P1;HPM_P2
2022/04/25 00:01:05;;;;;;;6.50;5.97;;;13.20;99.90;;;;;;4975711;28;20175;-76
2022/04/25 00:03:30;;;;;;;6.10;5.60;;;13.10;99.90;;;;;;4978975;28;20178;-77
2022/04/25 00:05:56;;;;;;;6.53;5.93;;;13.10;99.90;;;;;;4975767;28;20184;-77
2022/04/25 00:08:22;;;;;;;5.93;5.43;;;13.20;99.90;;;;;;4974555;28;20198;-76
2022/04/25 00:10:48;;;;;;;5.63;5.07;;;13.20;99.90;;;;;;4975851;28;20180;-76
2022/04/25 00:13:14;;;;;;;8.43;7.23;;;13.20;99.90;;;;;;4974813;28;20206;-77
2022/04/25 00:15:41;;;;;;;6.47;5.72;;;13.20;99.90;;;;;;4957583;28;20234;-77
2022/04/25 00:18:07;;;;;;;6.18;5.40;;;13.20;99.90;;;;;;4974561;28;20530;-76
2022/04/25 00:20:33;;;;;;;7.82;7.13;;;13.20;99.90;;;;;;4974817;28;20164;-77
2022/04/25 00:23:00;;;;;;;9.77;8.90;;;13.20;99.90;;;;;;4975139;28;20168;-77
2022/04/25 00:25:28;;;;;;;9.10;8.20;;;13.20;99.90;;;;;;4974745;28;20299;-76
2022/04/25 00:27:54;;;;;;;9.23;8.52;;;13.10;99.90;;;;;;4956407;28;20218;-78
2022/04/25 00:30:20;;;;;;;8.07;7.43;;;13.10;99.90;;;;;;4974150;28;20651;-76
2022/04/25 00:32:46;;;;;;;10.73;9.82;;;13.00;99.90;;;;;;4974097;28;20207;-77
2022/04/25 00:35:11;;;;;;;9.13;7.30;;;12.90;99.90;;;;;;4972919;28;20247;-76
2022/04/25 00:37:37;;;;;;;9.60;8.90;;;12.80;99.90;;;;;;4973471;28;20219;-77
2022/04/25 00:40:03;;;;;;;9.17;8.47;;;12.70;99.90;;;;;;4973734;28;20167;-77
2022/04/25 00:42:29;;;;;;;9.40;8.63;;;12.50;99.90;;;;;;4956778;28;20184;-77
2022/04/25 00:44:59;;;;;;;7.63;7.03;;;12.40;99.90;;;;;;4974306;28;20172;-77
2022/04/25 00:47:26;;;;;;;8.20;7.40;;;12.20;99.90;;;;;;4973846;28;20645;-77
2022/04/25 00:49:52;;;;;;;7.28;6.68;;;12.10;99.90;;;;;;4956123;28;20175;-77
2022/04/25 00:52:18;;;;;;;8.87;8.07;;;12.10;99.90;;;;;;4973791;28;20210;-77
2022/04/25 00:54:44;;;;;;;9.43;8.43;;;12.00;99.90;;;;;;4973940;28;20179;-77
2022/04/25 00:57:11;;;;;;;8.03;7.23;;;11.90;99.90;;;;;;4973711;28;20705;-77
2022/04/25 00:59:36;;;;;;;6.40;4.97;;;11.80;99.90;;;;;;4955771;28;20583;-77
2022/04/25 01:02:03;;;;;;;5.93;5.03;;;11.70;99.90;;;;;;4974191;28;20214;-77
2022/04/25 01:04:29;;;;;;;4.60;4.30;;;11.60;99.90;;;;;;4957288;28;20176;-77
2022/04/25 01:06:55;;;;;;;4.43;4.03;;;11.50;99.90;;;;;;4977944;28;20200;-77
2022/04/25 01:09:21;;;;;;;3.47;3.17;;;11.50;99.90;;;;;;4976802;28;20168;-77
2022/04/25 01:11:47;;;;;;;3.00;2.20;;;11.40;99.90;;;;;;4985851;28;20198;-77
2022/04/25 01:14:17;;;;;;;4.32;3.80;;;11.30;99.90;;;;;;4986860;28;20163;-76
2022/04/25 01:16:43;;;;;;;4.00;3.70;;;11.20;99.90;;;;;;4959834;28;20202;-76
2022/04/25 01:19:09;;;;;;;3.85;3.47;;;11.20;99.90;;;;;;4962226;28;20236;-76
2022/04/25 01:21:42;;;;;;;3.00;2.80;;;11.10;99.90;;;;;;4979622;28;20167;-76
2022/04/25 01:29:38;;;;;;;3.70;2.95;;;10.90;99.90;;;;;;4977451;28;20180;-75
2022/04/25 01:32:05;;;;;;;2.80;2.30;;;10.90;99.90;;;;;;4966059;28;20226;-76
2022/04/25 01:34:32;;;;;;;4.25;3.85;;;10.90;99.90;;;;;;4983249;28;20658;-76
2022/04/25 01:37:01;;;;;;;6.20;3.35;;;10.90;99.90;;;;;;4980245;28;20190;-76
2022/04/25 01:39:27;;;;;;;5.57;4.70;;;10.80;99.90;;;;;;4978032;28;20164;-76
2022/04/25 01:41:52;;;;;;;3.37;2.90;;;10.70;99.90;;;;;;4980164;28;20190;-76
2022/04/25 01:44:18;;;;;;;4.03;2.87;;;10.70;99.90;;;;;;4975616;28;20231;-75
2022/04/25 01:46:44;;;;;;;3.07;2.70;;;10.70;99.90;;;;;;4972824;28;20703;-75
2022/04/25 01:49:09;;;;;;;2.70;2.23;;;10.70;99.90;;;;;;4972763;28;20180;-75
2022/04/25 01:51:39;;;;;;;4.40;3.27;;;10.70;99.90;;;;;;4972720;28;20171;-75
2022/04/25 01:54:05;;;;;;;4.03;3.45;;;10.70;99.90;;;;;;4973032;28;20176;-74
2022/04/25 01:56:31;;;;;;;2.90;2.60;;;10.60;99.90;;;;;;4955519;28;20174;-74
2022/04/25 01:58:57;;;;;;;4.03;3.72;;;10.60;99.90;;;;;;4954708;28;20230;-74
2022/04/25 02:01:23;;;;;;;5.32;4.63;;;10.50;99.90;;;;;;4971350;28;20247;-74
2022/04/25 02:03:49;;;;;;;3.90;3.37;;;10.40;99.90;;;;;;4956050;28;20280;-74
2022/04/25 02:06:14;;;;;;;5.50;5.00;;;10.30;99.90;;;;;;4972606;28;20578;-74
2022/04/25 02:08:40;;;;;;;8.10;3.63;;;10.20;99.90;;;;;;4955046;28;20168;-74
2022/04/25 02:11:25;;;;;;;4.90;3.40;;;10.20;99.90;;;;;;4972366;28;20799;-74
2022/04/25 02:13:52;;;;;;;4.28;3.78;;;10.30;99.90;;;;;;4972628;28;20207;-74
2022/04/25 02:16:18;;;;;;;3.50;3.20;;;10.30;99.90;;;;;;4972297;28;20227;-74
2022/04/25 02:18:44;;;;;;;2.58;2.38;;;10.30;99.90;;;;;;4971698;28;20168;-75
2022/04/25 02:21:10;;;;;;;4.03;3.63;;;10.30;99.90;;;;;;4972434;28;20174;-75
2022/04/25 02:23:36;;;;;;;3.87;3.57;;;10.40;99.90;;;;;;4974692;28;20179;-75
2022/04/25 02:26:01;;;;;;;4.93;4.43;;;10.40;99.90;;;;;;4976752;28;20547;-75
2022/04/25 02:28:28;;;;;;;5.03;3.70;;;10.50;99.90;;;;;;4976580;28;20203;-75
2022/04/25 02:30:53;;;;;;;4.05;3.65;;;10.50;99.90;;;;;;4976894;28;20178;-75
2022/04/25 02:33:19;;;;;;;6.50;4.40;;;10.60;99.90;;;;;;4976735;28;20195;-75
2022/04/25 02:35:46;;;;;;;7.28;4.50;;;10.60;99.90;;;;;;4977033;28;20639;-75
2022/04/25 02:38:11;;;;;;;3.70;3.35;;;10.60;99.90;;;;;;4959125;28;20636;-75
2022/04/25 02:40:37;;;;;;;3.67;3.37;;;10.60;99.90;;;;;;4975388;28;20199;-75
2022/04/25 02:43:03;;;;;;;4.15;3.65;;;10.60;99.90;;;;;;4975008;28;20171;-75
2022/04/25 02:45:29;;;;;;;3.63;3.30;;;10.60;99.90;;;;;;4974760;28;20577;-75
2022/04/25 02:47:55;;;;;;;3.60;3.17;;;10.60;99.90;;;;;;4975561;28;21138;-75
2022/04/25 02:50:21;;;;;;;4.43;4.03;;;10.60;99.90;;;;;;4975771;28;20168;-75
2022/04/25 02:52:46;;;;;;;4.60;3.75;;;10.60;99.90;;;;;;4975934;28;20227;-75
2022/04/25 02:55:12;;;;;;;4.33;3.30;;;10.70;99.90;;;;;;4976042;28;20578;-75
2022/04/25 02:57:38;;;;;;;4.07;3.47;;;10.60;99.90;;;;;;4975522;28;20192;-75
2022/04/25 03:00:05;;;;;;;4.17;3.77;;;10.60;99.90;;;;;;4975540;28;20654;-75
2022/04/25 03:02:31;;;;;;;3.85;3.45;;;10.70;99.90;;;;;;4975959;28;20528;-75
2022/04/25 03:04:57;;;;;;;3.60;3.30;;;10.70;99.90;;;;;;4975988;28;20167;-75
2022/04/25 03:07:23;;;;;;;3.50;3.20;;;10.60;99.90;;;;;;4958000;28;20598;-75
2022/04/25 03:09:48;;;;;;;3.37;2.57;;;10.60;99.90;;;;;;4957621;28;20634;-75
2022/04/25 03:12:15;;;;;;;3.70;3.40;;;10.60;99.90;;;;;;4958599;28;20274;-75
2022/04/25 03:14:41;;;;;;;3.33;2.97;;;10.50;99.90;;;;;;4975489;28;20164;-74
2022/04/25 03:17:07;;;;;;;3.33;3.00;;;10.50;99.90;;;;;;4958377;28;20205;-74
2022/04/25 03:19:32;;;;;;;2.80;2.60;;;10.50;99.90;;;;;;4975050;28;20176;-74
2022/04/25 03:21:59;;;;;;;3.63;3.33;;;10.50;99.90;;;;;;4975491;28;20175;-74
2022/04/25 03:24:24;;;;;;;3.22;3.03;;;10.50;99.90;;;;;;4975593;28;20180;-74
2022/04/25 03:26:50;;;;;;;3.83;3.50;;;10.50;99.90;;;;;;4975175;28;20203;-74
2022/04/25 03:29:16;;;;;;;4.03;3.63;;;10.50;99.90;;;;;;4957538;28;20175;-73
2022/04/25 03:31:43;;;;;;;3.92;3.15;;;10.50;99.90;;;;;;4975189;28;20172;-74
2022/04/25 03:34:08;;;;;;;4.55;2.90;;;10.50;99.90;;;;;;4974535;28;20517;-73
2022/04/25 03:36:34;;;;;;;3.40;3.10;;;10.60;99.90;;;;;;4975259;28;20191;-74
2022/04/25 03:39:00;;;;;;;3.80;3.30;;;10.60;99.90;;;;;;4974793;28;20175;-74
2022/04/25 03:41:30;;;;;;;3.47;3.22;;;10.60;99.90;;;;;;4957357;28;20207;-74
2022/04/25 03:43:55;;;;;;;3.55;3.30;;;10.70;99.90;;;;;;4974979;28;20172;-74
2022/04/25 03:46:21;;;;;;;4.07;3.50;;;10.70;99.90;;;;;;4975216;28;20695;-74
2022/04/25 03:48:47;;;;;;;3.77;3.47;;;10.70;99.90;;;;;;4974486;28;20179;-74
2022/04/25 03:51:12;;;;;;;3.60;3.30;;;10.70;99.90;;;;;;4957258;28;20175;-74
2022/04/25 03:53:38;;;;;;;3.83;3.50;;;10.80;99.90;;;;;;4974902;28;20227;-75
2022/04/25 03:58:49;;;;;;;3.95;3.65;;;10.80;99.90;;;;;;4974503;28;20199;-74
2022/04/25 04:01:15;;;;;;;3.30;3.10;;;10.80;99.90;;;;;;4974622;28;20195;-74
2022/04/25 04:03:41;;;;;;;3.22;2.90;;;10.90;99.90;;;;;;4941667;28;20164;-74
2022/04/25 04:06:11;;;;;;;4.37;3.97;;;11.00;99.90;;;;;;4974821;28;20182;-74
2022/04/25 04:08:37;;;;;;;4.28;3.88;;;11.00;99.90;;;;;;4941076;28;20626;-75
2022/04/25 04:11:06;;;;;;;4.50;4.10;;;11.00;99.90;;;;;;4973518;28;20179;-75
2022/04/25 04:13:32;;;;;;;4.75;4.40;;;11.10;99.90;;;;;;4975152;28;20203;-75
2022/04/25 04:15:57;;;;;;;4.57;4.17;;;11.10;99.90;;;;;;4975232;28;20171;-74
2022/04/25 04:18:23;;;;;;;4.77;4.37;;;11.10;99.90;;;;;;4974133;28;20196;-73
2022/04/25 04:20:50;;;;;;;4.20;3.83;;;11.20;99.90;;;;;;4956938;28;20563;-74
2022/04/25 04:23:16;;;;;;;5.05;4.55;;;11.20;99.90;;;;;;4974376;28;20924;-75
2022/04/25 04:25:41;;;;;;;4.55;4.10;;;11.20;99.90;;;;;;4974440;28;20176;-75
2022/04/25 04:28:07;;;;;;;5.13;4.73;;;11.30;99.90;;;;;;4973761;28;20207;-75
2022/04/25 04:30:33;;;;;;;5.40;4.90;;;11.20;99.90;;;;;;4974128;28;20356;-76
2022/04/25 04:32:59;;;;;;;5.83;5.30;;;11.30;99.90;;;;;;4974292;28;20664;-75
2022/04/25 04:38:10;;;;;;;6.70;6.10;;;11.20;99.90;;;;;;4973444;28;20230;-75
2022/04/25 04:40:37;;;;;;;7.07;6.25;;;11.20;99.90;;;;;;4973651;28;20175;-75
2022/04/25 04:43:03;;;;;;;6.45;5.95;;;11.30;99.90;;;;;;4973355;28;20199;-74
2022/04/25 04:45:29;;;;;;;7.20;6.50;;;11.30;99.90;;;;;;4973347;28;20207;-75
2022/04/25 04:47:55;;;;;;;7.53;6.90;;;11.30;99.90;;;;;;4956042;28;20282;-75
2022/04/25 04:50:21;;;;;;;7.13;6.25;;;11.30;99.90;;;;;;4956442;28;20233;-74
2022/04/25 04:52:49;;;;;;;7.25;6.55;;;11.30;99.90;;;;;;4973630;28;20238;-74
2022/04/25 04:55:16;;;;;;;7.80;7.10;;;11.30;99.90;;;;;;4973814;28;20168;-73
2022/04/25 04:57:42;;;;;;;6.32;5.82;;;11.30;99.90;;;;;;4973369;28;20215;-74
2022/04/25 05:00:17;;;;;;;6.75;6.15;;;11.30;99.90;;;;;;4973479;28;20160;-73
2022/04/25 05:02:44;;;;;;;6.70;6.10;;;11.30;99.90;;;;;;4973624;28;20175;-74
2022/04/25 05:05:11;;;;;;;6.68;6.05;;;11.30;99.90;;;;;;4973700;28;20176;-74
2022/04/25 05:07:37;;;;;;;7.32;6.15;;;11.40;99.90;;;;;;4972959;28;20837;-74
2022/04/25 05:10:04;;;;;;;6.90;6.30;;;11.40;99.90;;;;;;4973114;28;20172;-74
2022/04/25 05:12:30;;;;;;;7.03;5.97;;;11.40;99.90;;;;;;4956120;28;20199;-75
2022/04/25 05:14:57;;;;;;;6.38;5.88;;;11.50;99.90;;;;;;4973419;28;20596;-75
2022/04/25 05:17:23;;;;;;;6.97;6.38;;;11.50;99.90;;;;;;4973263;28;20203;-75
2022/04/25 05:19:49;;;;;;;5.33;4.90;;;11.50;99.90;;;;;;4972734;28;20166;-75
2022/04/25 05:22:15;;;;;;;7.00;6.40;;;11.50;99.90;;;;;;4955958;28;20187;-75
2022/04/25 05:24:41;;;;;;;6.50;5.90;;;11.40;99.90;;;;;;4954395;28;21206;-74
2022/04/25 05:27:07;;;;;;;5.97;5.47;;;11.40;99.90;;;;;;4971230;28;20215;-75
2022/04/25 05:29:33;;;;;;;7.80;5.93;;;11.40;99.90;;;;;;4971716;28;20171;-74
2022/04/25 05:31:59;;;;;;;6.80;5.97;;;11.30;99.90;;;;;;4987975;28;20281;-76
2022/04/25 05:34:25;;;;;;;5.82;5.32;;;11.30;99.90;;;;;;4972920;28;20254;-76
2022/04/25 05:36:51;;;;;;;6.28;5.57;;;11.30;99.90;;;;;;4987819;28;20199;-76
2022/04/25 05:39:17;;;;;;;6.70;6.07;;;11.30;99.90;;;;;;4987140;28;20539;-76
2022/04/25 05:41:45;;;;;;;5.00;4.60;;;11.30;99.90;;;;;;4972324;28;20179;-75
2022/04/25 05:44:11;;;;;;;5.47;4.97;;;11.30;99.90;;;;;;4972824;28;20662;-75
2022/04/25 05:46:37;;;;;;;6.73;6.03;;;11.40;99.90;;;;;;4971786;28;20290;-76
2022/04/25 05:52:03;;;;;;;4.45;4.05;;;11.50;99.90;;;;;;4970828;28;20179;-77
2022/04/25 05:54:30;;;;;;;7.28;6.65;;;11.60;99.90;;;;;;4954717;28;20250;-76
2022/04/25 05:56:55;;;;;;;6.25;5.65;;;11.70;99.90;;;;;;4972086;28;20202;-76
2022/04/25 05:59:21;;;;;;;6.00;5.30;;;11.70;99.90;;;;;;4971347;28;20168;-76
2022/04/25 06:01:48;;;;;;;7.38;6.18;;;11.70;99.90;;;;;;4970901;28;20164;-76
2022/04/25 06:04:13;;;;;;;6.93;5.97;;;11.80;99.90;;;;;;4969875;28;20178;-76
2022/04/25 06:06:39;;;;;;;9.20;8.40;;;11.90;99.90;;;;;;4962589;28;20615;-76
2022/04/25 06:09:05;;;;;;;10.03;9.10;;;12.00;99.90;;;;;;4970542;28;20203;-75
2022/04/25 06:11:32;;;;;;;11.40;10.40;;;12.10;99.90;;;;;;4970206;28;20226;-75
2022/04/25 06:13:59;;;;;;;11.85;10.65;;;12.20;99.90;;;;;;4967657;28;20206;-74
2022/04/25 06:16:25;;;;;;;11.38;10.35;;;12.30;99.90;;;;;;4954460;28;20183;-74
2022/04/25 06:18:51;;;;;;;11.40;10.30;;;12.50;99.90;;;;;;4938337;28;20187;-74
2022/04/25 06:21:17;;;;;;;11.43;10.40;;;12.60;99.90;;;;;;4969875;28;20171;-74
2022/04/25 06:23:43;;;;;;;10.50;9.50;;;12.70;99.90;;;;;;4953886;28;20202;-74
2022/04/25 06:26:08;;;;;;;10.90;9.90;;;12.90;99.90;;;;;;4971254;28;20586;-74
2022/04/25 06:28:34;;;;;;;8.30;7.60;;;13.00;99.90;;;;;;4970053;28;20195;-75
2022/04/25 06:31:00;;;;;;;9.40;8.60;;;13.00;99.90;;;;;;4938245;28;20455;-75
2022/04/25 06:33:26;;;;;;;8.65;7.85;;;13.10;99.90;;;;;;4971515;28;20673;-75
2022/04/25 06:35:52;;;;;;;11.70;10.70;;;13.10;99.90;;;;;;4970392;28;20625;-75
2022/04/25 06:38:18;;;;;;;10.27;9.47;;;13.10;99.90;;;;;;4961278;28;20216;-76
2022/04/25 06:40:46;;;;;;;9.83;9.03;;;13.10;99.90;;;;;;4962144;28;20172;-76
2022/04/25 06:43:13;;;;;;;9.45;8.75;;;13.20;99.90;;;;;;4981404;28;20628;-76
2022/04/25 06:45:40;;;;;;;8.25;7.65;;;13.20;99.90;;;;;;4966406;28;20187;-76
2022/04/25 06:48:06;;;;;;;10.25;9.45;;;13.20;99.90;;;;;;4970972;28;20210;-76
2022/04/25 06:50:32;;;;;;;9.87;9.00;;;13.20;99.90;;;;;;4981289;28;20171;-76
2022/04/25 06:52:58;;;;;;;10.40;9.60;;;13.30;99.90;;;;;;4971949;28;20633;-76
2022/04/25 06:55:23;;;;;;;9.57;8.77;;;13.30;99.90;;;;;;4940933;28;20176;-76
2022/04/25 06:57:49;;;;;;;8.57;7.87;;;13.40;99.90;;;;;;4970528;28;20598;-75
2022/04/25 07:00:17;;;;;;;6.80;6.20;;;13.40;99.90;;;;;;4971204;28;20203;-75
2022/04/25 07:02:44;;;;;;;4.95;4.55;;;13.50;99.90;;;;;;4956802;28;20593;-75
2022/04/25 07:05:10;;;;;;;6.72;6.13;;;13.60;99.90;;;;;;4967819;28;20259;-76
2022/04/25 07:07:38;;;;;;;6.30;5.80;;;13.70;99.90;;;;;;4971318;28;20204;-75
2022/04/25 07:10:05;;;;;;;5.55;5.05;;;13.80;99.90;;;;;;4955055;28;20723;-76
2022/04/25 07:12:31;;;;;;;6.53;5.93;;;14.10;99.90;;;;;;4975372;28;20203;-75
2022/04/25 07:14:57;;;;;;;6.93;5.60;;;14.50;99.90;;;;;;4975761;28;20287;-76
2022/04/25 07:17:23;;;;;;;5.80;5.30;;;14.90;99.90;;;;;;4982164;28;20223;-76
2022/04/25 07:19:49;;;;;;;5.43;4.93;;;15.20;99.90;;;;;;4976492;28;20263;-76
2022/04/25 07:30:29;;;;;;;4.60;4.20;;;16.30;99.90;;;;;;4964463;28;21186;-77
2022/04/25 07:32:57;;;;;;;4.47;4.10;;;16.30;99.90;;;;;;4975361;28;20614;-77
2022/04/25 07:35:23;;;;;;;5.87;5.20;;;16.30;99.90;;;;;;4974844;28;20605;-77
2022/04/25 07:37:48;;;;;;;6.30;5.70;;;16.20;99.90;;;;;;4972911;28;20998;-77
2022/04/25 07:40:14;;;;;;;6.83;6.20;;;16.20;99.90;;;;;;4974323;28;20660;-77
2022/04/25 07:42:40;;;;;;;6.70;6.10;;;16.10;99.90;;;;;;4974394;28;20267;-76
2022/04/25 07:45:07;;;;;;;6.93;6.33;;;16.10;99.90;;;;;;4974975;28;20727;-76
2022/04/25 07:47:35;;;;;;;6.90;6.40;;;16.10;99.90;;;;;;4973002;28;20637;-77
2022/04/25 07:50:01;;;;;;;5.78;5.28;;;16.00;99.90;;;;;;4956724;28;20643;-76
2022/04/25 07:52:27;;;;;;;6.17;5.67;;;16.00;99.90;;;;;;4974145;28;20254;-76
2022/04/25 07:54:55;;;;;;;7.20;6.60;;;16.00;99.90;;;;;;4982436;28;20586;-75
2022/04/25 07:57:20;;;;;;;5.70;5.20;;;16.00;99.90;;;;;;4973939;28;20934;-76
2022/04/25 07:59:47;;;;;;;7.93;7.23;;;16.00;99.90;;;;;;4972662;28;20610;-76
2022/04/25 08:02:13;;;;;;;6.40;5.90;;;16.10;99.90;;;;;;4968325;28;20594;-76
2022/04/25 08:04:39;;;;;;;6.50;6.00;;;16.10;99.90;;;;;;4973899;28;20180;-76
2022/04/25 08:07:05;;;;;;;6.90;6.30;;;16.10;99.90;;;;;;4956651;28;20638;-76
2022/04/25 08:09:31;;;;;;;6.43;5.93;;;16.30;99.90;;;;;;4973031;28;20700;-76
2022/04/25 08:20:11;;;;;;;5.40;5.00;;;18.80;99.90;;;;;;4974595;28;20559;-77
2022/04/25 08:22:37;;;;;;;5.17;4.77;;;19.40;99.90;;;;;;4974037;28;20595;-76
2022/04/25 08:25:04;;;;;;;3.00;2.70;;;19.80;99.90;;;;;;4973018;28;20591;-76
2022/04/25 08:27:30;;;;;;;2.43;2.23;;;20.10;99.90;;;;;;4972900;28;20270;-76
2022/04/25 08:29:55;;;;;;;3.10;2.80;;;20.30;99.90;;;;;;4973029;28;21190;-77
2022/04/25 08:32:21;;;;;;;2.20;2.00;;;20.30;99.90;;;;;;4972764;28;20602;-77
2022/04/25 08:34:47;;;;;;;3.27;2.23;;;20.30;99.90;;;;;;4973708;28;20304;-77
2022/04/25 08:37:12;;;;;;;2.00;1.77;;;20.20;99.90;;;;;;4973063;28;20223;-77
2022/04/25 08:39:38;;;;;;;3.03;2.73;;;20.10;99.90;;;;;;4946588;28;20203;-77
2022/04/25 08:42:05;;;;;;;3.20;2.23;;;19.80;99.90;;;;;;4956021;28;20636;-76
2022/04/25 08:44:31;;;;;;;2.60;2.20;;;19.60;99.90;;;;;;4972556;28;20227;-76
2022/04/25 08:46:59;;;;;;;3.07;2.63;;;19.40;99.90;;;;;;4955869;28;20713;-77
2022/04/25 08:49:26;;;;;;;3.03;2.27;;;19.20;99.90;;;;;;4955572;28;20584;-76
2022/04/25 08:51:58;;;;;;;2.53;1.87;;;19.10;99.90;;;;;;4971805;28;20632;-76
2022/04/25 08:54:32;;;;;;;2.40;2.10;;;19.00;99.90;;;;;;4973292;28;20620;-77
2022/04/25 08:56:59;;;;;;;2.47;2.27;;;18.80;99.90;;;;;;4955782;28;20703;-76
2022/04/25 08:59:26;;;;;;;2.73;2.03;;;18.70;99.90;;;;;;4972904;28;20582;-76
2022/04/25 09:01:53;;;;;;;2.37;2.10;;;18.50;99.90;;;;;;4972301;28;20590;-76
2022/04/25 09:04:20;;;;;;;2.50;2.30;;;18.30;99.90;;;;;;4955627;28;20576;-77
2022/04/25 09:06:48;;;;;;;3.90;3.43;;;18.10;99.90;;;;;;4972671;28;20614;-76
2022/04/25 09:09:14;;;;;;;3.27;2.43;;;17.90;99.90;;;;;;4972510;28;20681;-76
2022/04/25 09:14:24;;;;;;;3.50;3.20;;;17.70;99.90;;;;;;4970966;28;20611;-76
2022/04/25 09:16:50;;;;;;;3.23;2.77;;;17.50;99.90;;;;;;4971161;28;20674;-76
2022/04/25 09:19:16;;;;;;;3.50;2.90;;;17.40;99.90;;;;;;4972637;28;20618;-76
2022/04/25 09:21:44;;;;;;;3.63;3.33;;;17.40;99.90;;;;;;4939173;28;20599;-76
2022/04/25 09:24:46;;;;;;;3.40;2.60;;;17.40;99.90;;;;;;4958979;28;20541;-76
2022/04/25 09:27:18;;;;;;;3.90;3.60;;;17.50;99.90;;;;;;4964917;28;20693;-76
2022/04/25 09:29:48;;;;;;;3.83;3.40;;;17.70;99.90;;;;;;4971164;28;20595;-76
2022/04/25 09:32:15;;;;;;;3.47;3.17;;;17.80;99.90;;;;;;4971205;28;20717;-76
2022/04/25 09:37:47;;;;;;;4.50;4.10;;;18.00;99.90;;;;;;4972158;28;20599;-76
2022/04/25 09:40:17;;;;;;;3.43;3.13;;;18.00;99.90;;;;;;4972192;28;20575;-76
2022/04/25 09:42:43;;;;;;;3.40;3.10;;;18.20;99.90;;;;;;4972142;28;20584;-76
2022/04/25 09:45:09;;;;;;;3.43;3.20;;;18.40;99.90;;;;;;4971586;28;20961;-76
2022/04/25 09:47:38;;;;;;;3.77;3.27;;;18.70;99.90;;;;;;4971734;28;20622;-77
2022/04/25 09:50:13;;;;;;;3.73;3.43;;;19.10;99.90;;;;;;4971170;28;20187;-76
2022/04/25 09:52:53;;;;;;;5.40;3.07;;;19.40;99.90;;;;;;4982162;28;20622;-76
2022/04/25 09:55:21;;;;;;;3.40;3.10;;;19.80;99.90;;;;;;4954448;28;21151;-76
2022/04/25 09:57:49;;;;;;;3.37;2.80;;;20.20;99.90;;;;;;4971654;28;20658;-76
2022/04/25 10:00:25;;;;;;;2.97;2.67;;;20.50;99.90;;;;;;4970146;28;21146;-76
2022/04/25 10:02:51;;;;;;;3.00;2.67;;;21.10;99.90;;;;;;4972101;28;20581;-76
2022/04/25 10:05:17;;;;;;;3.20;2.27;;;21.60;99.90;;;;;;4977432;28;20592;-76
2022/04/25 10:07:45;;;;;;;2.93;2.70;;;22.00;99.90;;;;;;4971055;28;20621;-77
2022/04/25 10:10:12;;;;;;;3.43;2.57;;;22.10;99.90;;;;;;4971832;28;20618;-76
2022/04/25 10:12:39;;;;;;;2.87;2.63;;;22.10;99.90;;;;;;4972843;28;21186;-76
2022/04/25 10:15:06;;;;;;;3.30;3.10;;;21.90;98.90;;;;;;4971395;28;21228;-76
2022/04/25 10:17:32;;;;;;;2.40;2.20;;;21.70;98.50;;;;;;4970218;28;20614;-75
2022/04/25 10:20:01;;;;;;;4.67;2.37;;;21.60;98.80;;;;;;4971548;28;21138;-76
2022/04/25 10:22:27;;;;;;;2.53;2.33;;;21.70;97.50;;;;;;4971957;28;20579;-76
2022/04/25 10:24:53;;;;;;;4.23;2.63;;;21.90;99.80;;;;;;4971934;28;21189;-77
2022/04/25 10:27:27;;;;;;;5.13;2.53;;;22.40;99.90;;;;;;4954501;28;20713;-76
2022/04/25 10:29:56;;;;;;;2.30;2.00;;;22.80;99.50;;;;;;4953298;28;20209;-76
2022/04/25 10:32:23;;;;;;;2.73;2.50;;;23.00;99.10;;;;;;4967967;28;21430;-76
2022/04/25 10:35:01;;;;;;;3.90;3.13;;;23.00;98.20;;;;;;4971665;28;20579;-76
2022/04/25 10:37:31;;;;;;;4.13;2.20;;;23.00;95.60;;;;;;4974797;28;20614;-77
2022/04/25 10:40:00;;;;;;;2.17;1.97;;;22.80;95.50;;;;;;4937748;28;20694;-77
2022/04/25 10:45:11;;;;;;;3.10;2.90;;;22.50;95.80;;;;;;4974455;28;20598;-76
2022/04/25 10:47:52;;;;;;;3.83;3.53;;;22.30;95.40;;;;;;4957303;28;20606;-77
2022/04/25 10:50:18;;;;;;;2.80;2.60;;;22.10;95.10;;;;;;4957484;28;20939;-76
2022/04/25 10:55:23;;;;;;;3.03;2.83;;;21.70;95.20;;;;;;4982731;28;20175;-76
2022/04/25 10:58:04;;;;;;;3.97;3.40;;;21.70;95.40;;;;;;4977912;28;20615;-76
2022/04/25 11:00:41;;;;;;;3.00;2.50;;;21.60;95.30;;;;;;4974962;28;20563;-75
2022/04/25 11:03:10;;;;;;;3.13;2.30;;;21.60;95.70;;;;;;4975690;28;20938;-75
2022/04/25 11:05:38;;;;;;;4.63;2.33;;;21.60;95.80;;;;;;4960146;28;20599;-75
2022/04/25 11:08:19;;;;;;;2.53;2.33;;;21.90;96.90;;;;;;4971281;28;21258;-75
2022/04/25 11:10:51;;;;;;;2.50;2.30;;;22.20;96.10;;;;;;4961890;28;20582;-75
2022/04/25 11:13:18;;;;;;;3.00;2.70;;;22.80;98.40;;;;;;4973996;28;21340;-74
2022/04/25 11:15:46;;;;;;;2.50;2.30;;;23.40;98.50;;;;;;4975002;28;20595;-74
2022/04/25 11:18:33;;;;;;;2.53;2.33;;;24.00;98.30;;;;;;4975248;28;20654;-75
2022/04/25 11:21:12;;;;;;;4.60;2.57;;;24.40;95.20;;;;;;4952446;28;20602;-75
2022/04/25 11:23:44;;;;;;;2.80;2.60;;;24.80;95.30;;;;;;4959267;28;20583;-75
2022/04/25 11:26:11;;;;;;;2.47;2.27;;;25.20;94.20;;;;;;4974816;28;20591;-74
2022/04/25 11:29:08;;;;;;;3.30;2.40;;;25.60;94.80;;;;;;4973912;28;20609;-74
2022/04/25 11:31:35;;;;;;;3.20;2.60;;;25.90;85.10;;;;;;4969106;28;20978;-73
2022/04/25 11:34:07;;;;;;;2.50;2.30;;;26.10;91.30;;;;;;4974581;28;20716;-74
2022/04/25 11:36:41;;;;;;;2.67;2.47;;;26.10;90.10;;;;;;4974653;28;20662;-75
2022/04/25 11:41:52;;;;;;;2.90;2.70;;;26.00;88.20;;;;;;4974449;28;20603;-74
2022/04/25 11:44:18;;;;;;;5.50;3.40;;;26.00;86.00;;;;;;4973884;28;20587;-74
2022/04/25 11:46:46;;;;;;;2.27;2.07;;;25.70;81.80;;;;;;4974346;28;20621;-75
2022/04/25 11:49:12;;;;;;;2.53;2.33;;;25.60;84.10;;;;;;4974264;28;20190;-75
2022/04/25 11:51:39;;;;;;;2.60;2.40;;;25.60;82.90;;;;;;4956476;28;21218;-74
2022/04/25 11:54:10;;;;;;;2.50;2.30;;;25.70;82.80;;;;;;4974304;28;20960;-74
2022/04/25 11:56:39;;;;;;;3.00;2.80;;;25.80;81.70;;;;;;4955647;28;20647;-74
2022/04/25 11:59:12;;;;;;;2.83;2.63;;;25.50;76.60;;;;;;4974257;28;20654;-74
2022/04/25 12:01:49;;;;;;;2.37;1.70;;;25.30;70.10;;;;;;4956345;28;20618;-74
2022/04/25 12:04:29;;;;;;;2.33;2.03;;;25.10;73.70;;;;;;4967096;28;20575;-74
2022/04/25 12:07:03;;;;;;;2.40;2.20;;;24.80;69.60;;;;;;4973659;28;21162;-74
2022/04/25 12:18:25;;;;;;;2.27;2.07;;;24.00;73.00;;;;;;4937221;29;20993;-74
2022/04/25 12:21:11;;;;;;;2.73;1.60;;;23.90;73.90;;;;;;4971542;28;20591;-73
2022/04/25 12:23:41;;;;;;;2.20;2.00;;;23.70;71.60;;;;;;4972824;28;20598;-75
2022/04/25 12:26:42;;;;;;;2.43;2.10;;;23.40;71.10;;;;;;4975505;28;20591;-75
2022/04/25 12:29:20;;;;;;;4.40;1.90;;;23.20;69.80;;;;;;4972563;28;20603;-75
2022/04/25 12:31:48;;;;;;;3.03;1.97;;;22.80;69.60;;;;;;4955850;28;20587;-75
2022/04/25 12:34:19;;;;;;;2.87;2.23;;;22.50;70.30;;;;;;4924641;28;20599;-75
2022/04/25 12:36:58;;;;;;;1.87;1.67;;;22.20;70.50;;;;;;4956908;28;20591;-74
2022/04/25 12:39:27;;;;;;;3.33;2.20;;;21.90;70.90;;;;;;4974096;28;20617;-75
2022/04/25 12:41:57;;;;;;;3.23;1.90;;;21.70;70.60;;;;;;4957024;28;20991;-74
2022/04/25 12:44:26;;;;;;;2.20;1.50;;;21.40;70.10;;;;;;4973977;28;20630;-74
2022/04/25 12:47:04;;;;;;;2.70;1.63;;;21.10;70.10;;;;;;4959383;28;20972;-74
2022/04/25 12:49:44;;;;;;;2.00;1.60;;;20.80;70.00;;;;;;4974795;28;20678;-74
2022/04/25 12:52:12;;;;;;;2.70;1.50;;;20.60;69.40;;;;;;4977845;28;20670;-73
2022/04/25 12:54:42;;;;;;;1.70;1.40;;;20.40;70.30;;;;;;4973213;28;20975;-74
2022/04/25 12:57:16;;;;;;;1.87;1.20;;;20.20;70.80;;;;;;4956382;28;20591;-75
2022/04/25 12:59:44;;;;;;;2.40;1.13;;;20.10;71.50;;;;;;4955540;28;20590;-73
2022/04/25 13:02:13;;;;;;;2.57;2.00;;;19.90;71.60;;;;;;4973279;28;20587;-74
2022/04/25 13:05:00;;;;;;;2.70;1.83;;;19.80;72.10;;;;;;4973534;28;20567;-74
2022/04/25 13:07:28;;;;;;;2.20;1.77;;;19.70;72.40;;;;;;4939471;28;21281;-75
2022/04/25 13:09:56;;;;;;;4.03;1.90;;;19.60;72.80;;;;;;4970921;28;20572;-74
2022/04/25 13:12:24;;;;;;;2.30;2.10;;;19.50;73.40;;;;;;4955540;28;20626;-75
2022/04/25 13:14:50;;;;;;;1.80;1.50;;;19.40;73.60;;;;;;4973258;28;20967;-74
2022/04/25 13:17:16;;;;;;;3.80;1.97;;;19.30;73.70;;;;;;4972790;28;20634;-75
2022/04/25 13:19:43;;;;;;;2.27;2.07;;;19.30;74.10;;;;;;4972466;28;20603;-75
2022/04/25 13:22:09;;;;;;;3.63;2.47;;;19.20;74.40;;;;;;4972326;28;20978;-75
2022/04/25 13:24:37;;;;;;;4.03;3.73;;;19.10;74.30;;;;;;4971570;28;20579;-75
2022/04/25 13:27:06;;;;;;;10.23;4.80;;;19.00;74.90;;;;;;4971609;28;20686;-75
2022/04/25 13:29:33;;;;;;;4.33;3.80;;;18.80;76.00;;;;;;4972017;28;20571;-76
2022/04/25 13:31:59;;;;;;;5.80;5.30;;;18.70;76.70;;;;;;4954959;28;21145;-74
2022/04/25 13:34:27;;;;;;;4.77;4.30;;;18.40;77.10;;;;;;4979984;28;20575;-74
2022/04/25 13:36:55;;;;;;;5.40;4.90;;;18.20;77.70;;;;;;4992052;28;20598;-75
2022/04/25 13:39:21;;;;;;;4.43;4.13;;;18.00;78.30;;;;;;4977169;28;20587;-74
2022/04/25 13:41:47;;;;;;;7.10;4.80;;;17.80;79.20;;;;;;4987300;28;20584;-74